メインページ
METAR-TAF:

METAR-TAF

空港 :

リオデジャネイロ, リオデジャネイロ州, ブラジル

サントス・ドゥモン空港

緯度: 22-54S, 経度: 043-10W, 海抜: 3m

現時点の気象観測

当レポートは6分前の00:00(UTC)に作成
東/南東の風 8kt
気温 26°C
湿度 79%
気圧 1016 hPa
視程10km以上
高度2500ftの雲はほとんどない
高度4500ftの千切れ雲あり

METAR: SBRJ 250000Z 12008KT 9999 FEW025 BKN045 26/22 Q1016

時間: 21:06 (00:06 UTC)

予報

当レポートは9時間31分前の14:35(UTC)に作成
予報は24日の 18時(UTC)から 25日の 06時(UTC)まで有効
南/南東の風 10kt
視程10km以上
24日の 19時(UTC)から 24日の 21時(UTC)まで徐々に
南/南東の風 10kt
高度2500ftの雲は散在している
24日の 22時(UTC)から 24日の 24時(UTC)まで徐々に
北/北東の風 5kt
25日の 04時(UTC)から 25日の 06時(UTC)まで徐々に
東/北東の風 5kt
高度1500ftの雲は散在している

TAF: SBRJ 241435Z 2418/2506 15010KT 9999 SCT017TX28/2418Z TN24/2506Z BECMG 2419/2421 16010KT SCT025 BECMG 2422/2424 03005KT BECMG 2504/2506 07005KT SCT015 RMK PFV

4,000以上の空港の気象観測と天気予報(METAR報とTAF報)

利用可能な観測所は地図上に黄色い丸と赤い丸で示す。

丸の上にカーソルを重ねると観測所名を参照できる。

次にクリックすると気象観測と天気予報を参照できる。

マップの切り替え:黒色「×」印の緑ボタンをクリックして拡大、「-」印の緑ボタンをクリックして縮小、緑色の三角印をクリックして隣りの地図に切り替え


METAR-TAF: